createdAt,value
2022-10-07T00:01:11.780Z,97.59
2022-10-07T00:03:39.462Z,97.09
2022-10-07T00:06:09.266Z,96.89
2022-10-07T00:08:37.844Z,97.55
2022-10-07T00:11:07.735Z,98.14
2022-10-07T00:13:38.793Z,98.88
2022-10-07T00:16:08.371Z,99.70
2022-10-07T00:18:37.183Z,100.00
2022-10-07T00:21:06.631Z,99.98
2022-10-07T00:23:34.525Z,100.00
2022-10-07T00:26:03.097Z,100.00
2022-10-07T00:28:31.281Z,99.47
2022-10-07T00:31:00.746Z,99.19
2022-10-07T00:33:28.942Z,99.23
2022-10-07T00:35:56.488Z,98.97
2022-10-07T00:38:24.241Z,100.00
2022-10-07T00:40:51.785Z,99.28
2022-10-07T00:43:20.902Z,100.00
2022-10-07T00:45:48.529Z,99.69
2022-10-07T00:48:22.037Z,99.15
2022-10-07T00:50:50.120Z,99.79
2022-10-07T00:53:17.795Z,100.00
2022-10-07T00:55:45.565Z,100.00
2022-10-07T00:58:13.499Z,100.00
2022-10-07T01:00:41.439Z,100.00
2022-10-07T01:03:09.202Z,100.00
2022-10-07T01:05:38.498Z,98.67
2022-10-07T01:08:06.294Z,99.21
2022-10-07T01:10:39.000Z,100.00
2022-10-07T01:13:14.494Z,100.00
2022-10-07T01:15:47.051Z,100.00
2022-10-07T01:18:18.708Z,100.00
2022-10-07T01:20:53.867Z,100.00
2022-10-07T01:23:39.042Z,100.00
2022-10-07T01:26:49.101Z,100.00
2022-10-07T01:29:19.705Z,100.00
2022-10-07T01:31:49.890Z,100.00
2022-10-07T01:34:18.408Z,100.00
2022-10-07T01:36:51.823Z,100.00
2022-10-07T01:39:24.157Z,100.00
2022-10-07T01:41:54.227Z,100.00
2022-10-07T01:44:22.548Z,100.00
2022-10-07T01:46:50.102Z,100.00
2022-10-07T01:49:17.732Z,100.00
2022-10-07T01:51:45.786Z,100.00
2022-10-07T01:54:22.572Z,100.00
2022-10-07T01:57:02.023Z,100.00
2022-10-07T01:59:45.012Z,100.00
2022-10-07T02:02:19.370Z,100.00
2022-10-07T02:04:55.145Z,100.00
2022-10-07T02:07:37.772Z,100.00
2022-10-07T02:10:13.352Z,100.00
2022-10-07T02:12:45.896Z,100.00
2022-10-07T02:15:16.927Z,100.00
2022-10-07T02:17:47.749Z,100.00
2022-10-07T02:20:17.270Z,100.00
2022-10-07T02:22:46.325Z,100.00
2022-10-07T02:25:16.349Z,100.00
2022-10-07T02:27:46.832Z,100.00
2022-10-07T02:30:16.454Z,100.00
2022-10-07T02:32:47.564Z,100.00
2022-10-07T02:35:18.792Z,100.00
2022-10-07T02:37:48.453Z,100.00
2022-10-07T02:40:16.287Z,100.00
2022-10-07T02:42:53.436Z,100.00
2022-10-07T02:45:26.784Z,100.00
2022-10-07T02:47:59.031Z,100.00
2022-10-07T02:50:28.802Z,100.00
2022-10-07T02:52:56.765Z,100.00
2022-10-07T02:55:26.754Z,100.00
2022-10-07T02:57:58.722Z,100.00
2022-10-07T03:00:26.438Z,100.00
2022-10-07T03:02:55.451Z,100.00
2022-10-07T03:05:25.832Z,100.00
2022-10-07T03:07:57.133Z,100.00
2022-10-07T03:10:26.755Z,100.00
2022-10-07T03:12:56.248Z,100.00
2022-10-07T03:15:24.244Z,100.00
2022-10-07T03:17:52.152Z,100.00
2022-10-07T03:20:19.742Z,100.00
2022-10-07T03:22:47.352Z,100.00
2022-10-07T03:25:15.404Z,100.00
2022-10-07T03:27:43.807Z,100.00
2022-10-07T03:30:13.884Z,100.00
2022-10-07T03:32:42.315Z,100.00
2022-10-07T03:35:10.562Z,100.00
2022-10-07T03:37:38.212Z,100.00
2022-10-07T03:40:06.760Z,100.00
2022-10-07T03:42:34.327Z,100.00
2022-10-07T03:45:01.864Z,100.00
2022-10-07T03:47:30.900Z,100.00
2022-10-07T03:49:58.444Z,100.00
2022-10-07T03:52:25.998Z,100.00
2022-10-07T03:54:56.058Z,100.00
2022-10-07T03:57:41.005Z,100.00
2022-10-07T04:00:09.360Z,100.00
2022-10-07T04:02:38.345Z,100.00
2022-10-07T04:05:06.360Z,100.00
2022-10-07T04:07:34.247Z,100.00
2022-10-07T04:10:01.790Z,100.00
2022-10-07T04:12:33.497Z,100.00
2022-10-07T04:15:01.830Z,100.00
2022-10-07T04:17:29.475Z,100.00
2022-10-07T04:19:58.894Z,100.00
2022-10-07T04:22:26.867Z,100.00
2022-10-07T04:25:14.463Z,100.00
2022-10-07T04:27:51.551Z,100.00
2022-10-07T04:30:19.564Z,100.00
2022-10-07T04:32:47.251Z,100.00
2022-10-07T04:35:16.328Z,100.00
2022-10-07T04:37:44.256Z,100.00
2022-10-07T04:40:12.244Z,100.00
2022-10-07T04:42:57.295Z,100.00
2022-10-07T04:45:25.026Z,100.00
2022-10-07T04:47:52.560Z,100.00
2022-10-07T04:50:21.479Z,100.00
2022-10-07T04:52:49.020Z,100.00
2022-10-07T04:55:16.776Z,100.00
2022-10-07T04:57:44.642Z,100.00
2022-10-07T05:00:13.217Z,100.00
2022-10-07T05:02:40.840Z,100.00
2022-10-07T05:05:09.646Z,100.00
2022-10-07T05:07:38.664Z,100.00
2022-10-07T05:10:07.356Z,100.00
2022-10-07T05:12:34.921Z,100.00
2022-10-07T05:15:04.666Z,100.00
2022-10-07T05:17:32.231Z,100.00
2022-10-07T05:19:59.776Z,100.00
2022-10-07T05:22:27.302Z,100.00
2022-10-07T05:24:56.249Z,100.00
2022-10-07T05:27:23.826Z,100.00
2022-10-07T05:29:51.398Z,100.00
2022-10-07T05:32:18.988Z,100.00
2022-10-07T05:34:46.550Z,100.00
2022-10-07T05:37:15.146Z,100.00
2022-10-07T05:39:42.756Z,100.00
2022-10-07T05:42:13.588Z,100.00
2022-10-07T05:44:41.206Z,100.00
2022-10-07T05:47:08.920Z,100.00
2022-10-07T05:49:36.975Z,100.00
2022-10-07T05:52:05.093Z,100.00
2022-10-07T05:54:33.165Z,100.00
2022-10-07T05:57:00.848Z,100.00
2022-10-07T05:59:29.738Z,100.00
2022-10-07T06:02:00.149Z,100.00
2022-10-07T06:04:28.356Z,100.00
2022-10-07T06:06:55.881Z,100.00
2022-10-07T06:09:41.344Z,100.00
2022-10-07T06:12:28.287Z,100.00
2022-10-07T06:14:57.170Z,100.00
2022-10-07T06:17:24.688Z,100.00
2022-10-07T06:19:52.255Z,100.00
2022-10-07T06:22:19.774Z,100.00
2022-10-07T06:24:47.313Z,100.00
2022-10-07T06:27:14.848Z,100.00
2022-10-07T06:29:43.163Z,100.00
2022-10-07T06:32:12.122Z,100.00
2022-10-07T06:34:39.923Z,100.00
2022-10-07T06:37:07.480Z,100.00
2022-10-07T06:39:35.048Z,100.00
2022-10-07T06:42:02.667Z,100.00
2022-10-07T06:44:31.150Z,100.00
2022-10-07T06:46:58.846Z,100.00
2022-10-07T06:49:27.819Z,100.00
2022-10-07T06:51:55.378Z,100.00
2022-10-07T06:54:23.310Z,100.00
2022-10-07T06:56:50.885Z,100.00
2022-10-07T06:59:18.435Z,100.00
2022-10-07T07:01:46.192Z,100.00
2022-10-07T07:04:14.556Z,100.00
2022-10-07T07:06:44.821Z,100.00
2022-10-07T07:09:12.391Z,100.00
2022-10-07T07:11:43.383Z,100.00
2022-10-07T07:14:12.412Z,100.00
2022-10-07T07:16:40.525Z,100.00
2022-10-07T07:19:09.808Z,100.00
2022-10-07T07:21:38.158Z,100.00
2022-10-07T07:24:07.796Z,100.00
2022-10-07T07:26:35.609Z,100.00
2022-10-07T07:29:05.962Z,100.00
2022-10-07T07:31:35.047Z,100.00
2022-10-07T07:34:05.569Z,100.00
2022-10-07T07:36:35.250Z,100.00
2022-10-07T07:39:05.610Z,100.00
2022-10-07T07:41:36.542Z,100.00
2022-10-07T07:44:06.602Z,100.00
2022-10-07T07:46:36.162Z,100.00
2022-10-07T07:49:04.124Z,100.00
2022-10-07T07:51:32.085Z,100.00
2022-10-07T07:54:00.224Z,100.00
2022-10-07T07:56:29.083Z,100.00
2022-10-07T07:58:58.023Z,100.00
2022-10-07T08:01:25.608Z,100.00
2022-10-07T08:03:53.309Z,100.00
2022-10-07T08:06:22.049Z,100.00
2022-10-07T08:08:51.887Z,99.91
2022-10-07T08:11:20.748Z,100.00
2022-10-07T08:13:48.760Z,99.72
2022-10-07T08:16:19.498Z,99.90
2022-10-07T08:18:49.326Z,98.41
2022-10-07T08:21:19.129Z,98.36
2022-10-07T08:23:47.556Z,97.06
2022-10-07T08:26:15.594Z,96.45
2022-10-07T08:28:43.350Z,95.75
2022-10-07T08:31:14.282Z,96.63
2022-10-07T08:33:45.041Z,96.63
2022-10-07T08:36:13.868Z,95.81
2022-10-07T08:38:42.038Z,95.53
2022-10-07T08:41:20.820Z,95.55
2022-10-07T08:43:50.168Z,94.40
2022-10-07T08:46:19.683Z,93.48
2022-10-07T08:48:52.758Z,93.85
2022-10-07T08:51:22.663Z,94.11
2022-10-07T08:53:52.042Z,93.32
2022-10-07T08:56:21.666Z,92.71
2022-10-07T08:59:05.470Z,91.74
2022-10-07T09:01:42.455Z,91.77
2022-10-07T09:04:20.037Z,91.41
2022-10-07T09:06:54.156Z,91.62
2022-10-07T09:09:25.023Z,91.13
2022-10-07T09:11:53.627Z,89.85
2022-10-07T09:14:27.026Z,89.38
2022-10-07T09:16:55.654Z,89.05
2022-10-07T09:19:30.765Z,89.36
2022-10-07T09:22:02.235Z,88.19
2022-10-07T09:24:31.876Z,88.36
2022-10-07T09:27:01.017Z,88.71
2022-10-07T09:29:31.039Z,86.84
2022-10-07T09:31:58.937Z,86.98
2022-10-07T09:34:29.396Z,86.63
2022-10-07T09:37:13.587Z,85.94
2022-10-07T09:39:41.907Z,83.96
2022-10-07T09:42:11.733Z,83.62
2022-10-07T09:44:40.089Z,83.90
2022-10-07T09:47:16.380Z,84.07
2022-10-07T09:49:46.796Z,83.64
2022-10-07T09:52:19.317Z,83.05
2022-10-07T09:54:48.687Z,82.24
2022-10-07T09:57:27.512Z,81.96
2022-10-07T10:00:22.753Z,82.56
2022-10-07T10:02:52.662Z,82.59
2022-10-07T10:05:25.589Z,83.93
2022-10-07T10:08:01.278Z,83.34
2022-10-07T10:10:30.776Z,82.82
2022-10-07T10:12:59.849Z,83.62
2022-10-07T10:15:45.188Z,82.89
2022-10-07T10:18:31.627Z,82.96
2022-10-07T10:21:16.217Z,81.60
2022-10-07T10:23:47.009Z,81.83
2022-10-07T10:26:44.275Z,81.44
2022-10-07T10:29:20.530Z,81.57
2022-10-07T10:32:20.940Z,81.97
2022-10-07T10:34:54.839Z,80.93
2022-10-07T10:37:26.761Z,80.46
2022-10-07T10:40:00.787Z,80.05
2022-10-07T10:42:35.430Z,79.44
2022-10-07T10:45:18.289Z,80.31
2022-10-07T10:47:55.510Z,79.83
2022-10-07T10:50:26.994Z,79.37
2022-10-07T10:53:06.038Z,78.42
2022-10-07T10:55:53.162Z,78.54
2022-10-07T10:58:27.925Z,78.37
2022-10-07T11:01:01.049Z,78.49
2022-10-07T11:03:37.192Z,78.10
2022-10-07T11:06:07.630Z,78.99
2022-10-07T11:08:38.851Z,77.63
2022-10-07T11:11:08.815Z,78.96
2022-10-07T11:13:39.105Z,77.92
2022-10-07T11:16:09.711Z,78.76
2022-10-07T11:18:40.533Z,78.35
2022-10-07T11:21:12.652Z,78.15
2022-10-07T11:23:51.102Z,78.37
2022-10-07T11:26:22.552Z,78.25
2022-10-07T11:28:51.749Z,77.78
2022-10-07T11:31:27.106Z,78.20
2022-10-07T11:34:05.367Z,78.53
2022-10-07T11:36:40.194Z,78.03
2022-10-07T11:39:10.637Z,76.84
2022-10-07T11:41:46.537Z,75.66
2022-10-07T11:44:19.716Z,74.26
2022-10-07T11:46:48.510Z,71.51
2022-10-07T11:49:20.358Z,73.54
2022-10-07T11:51:55.098Z,72.40
2022-10-07T11:54:27.389Z,69.46
2022-10-07T11:56:57.590Z,69.30
2022-10-07T11:59:42.111Z,67.93
2022-10-07T12:02:39.069Z,67.18
2022-10-07T12:05:08.780Z,66.15
2022-10-07T12:07:39.190Z,66.45
2022-10-07T12:10:29.496Z,65.57
2022-10-07T12:12:59.201Z,65.64
2022-10-07T12:15:32.613Z,65.78
2022-10-07T12:18:28.351Z,65.94
2022-10-07T12:21:04.359Z,66.07
2022-10-07T12:23:49.874Z,66.35
2022-10-07T12:26:46.194Z,67.41
2022-10-07T12:29:22.384Z,67.79
2022-10-07T12:31:50.263Z,67.84
2022-10-07T12:34:30.318Z,67.70
2022-10-07T12:37:31.465Z,66.19
2022-10-07T12:40:00.102Z,67.40
2022-10-07T12:42:29.713Z,67.09
2022-10-07T12:44:58.853Z,67.99
2022-10-07T12:47:29.673Z,68.23
2022-10-07T12:50:00.466Z,67.88
2022-10-07T12:52:40.825Z,66.22
2022-10-07T12:55:10.924Z,66.15
2022-10-07T12:57:42.216Z,66.69
2022-10-07T13:00:13.895Z,67.51
2022-10-07T13:03:15.351Z,67.63
2022-10-07T13:06:23.567Z,67.50
2022-10-07T13:09:19.641Z,67.54
2022-10-07T13:12:14.048Z,67.51
2022-10-07T13:14:51.361Z,66.82
2022-10-07T13:17:35.244Z,66.59
2022-10-07T13:20:09.815Z,66.51
2022-10-07T13:22:37.699Z,67.59
2022-10-07T13:25:08.463Z,67.39
2022-10-07T13:27:37.848Z,67.61
2022-10-07T13:30:08.322Z,68.55
2022-10-07T13:32:36.953Z,67.95
2022-10-07T13:35:31.802Z,67.37
2022-10-07T13:38:00.201Z,68.46
2022-10-07T13:40:33.951Z,67.57
2022-10-07T13:43:03.342Z,68.93
2022-10-07T13:45:33.846Z,69.02
2022-10-07T13:48:01.474Z,68.89
2022-10-07T13:50:30.646Z,67.51
2022-10-07T13:52:58.656Z,69.33
2022-10-07T13:55:29.297Z,69.58
2022-10-07T13:57:58.360Z,69.53
2022-10-07T14:00:26.386Z,69.56
2022-10-07T14:02:55.594Z,69.56
2022-10-07T14:05:24.928Z,70.08
2022-10-07T14:07:54.616Z,70.12
2022-10-07T14:10:23.256Z,70.34
2022-10-07T14:12:51.882Z,70.04
2022-10-07T14:15:22.514Z,69.63
2022-10-07T14:17:53.864Z,70.17
2022-10-07T14:20:26.837Z,70.08
2022-10-07T14:22:56.161Z,70.50
2022-10-07T14:25:28.003Z,70.30
2022-10-07T14:28:07.692Z,71.00
2022-10-07T14:30:56.520Z,71.21
2022-10-07T14:33:49.731Z,70.35
2022-10-07T14:36:20.467Z,71.62
2022-10-07T14:38:49.796Z,72.21
2022-10-07T14:41:19.429Z,72.81
2022-10-07T14:43:48.568Z,72.54
2022-10-07T14:46:18.898Z,73.08
2022-10-07T14:48:47.057Z,73.54
2022-10-07T14:51:16.374Z,73.61
2022-10-07T14:53:45.565Z,73.83
2022-10-07T14:56:15.658Z,74.63
2022-10-07T14:58:43.331Z,74.56
2022-10-07T15:01:10.883Z,74.69
2022-10-07T15:03:38.593Z,74.39
2022-10-07T15:06:07.018Z,75.40
2022-10-07T15:08:34.749Z,75.95
2022-10-07T15:11:06.340Z,76.21
2022-10-07T15:13:33.887Z,76.23
2022-10-07T15:16:01.498Z,76.27
2022-10-07T15:18:29.208Z,76.86
2022-10-07T15:20:57.602Z,77.29
2022-10-07T15:23:25.226Z,77.38
2022-10-07T15:25:53.019Z,77.77
2022-10-07T15:28:22.115Z,78.54
2022-10-07T15:30:49.706Z,78.63
2022-10-07T15:33:17.440Z,78.55
2022-10-07T15:35:44.964Z,79.07
2022-10-07T15:38:12.526Z,79.46
2022-10-07T15:40:53.384Z,79.95
2022-10-07T15:43:22.517Z,80.71
2022-10-07T15:45:51.302Z,80.89
2022-10-07T15:48:22.953Z,81.30
2022-10-07T15:50:52.073Z,81.65
2022-10-07T15:53:20.310Z,82.17
2022-10-07T15:55:52.103Z,82.17
2022-10-07T15:58:19.960Z,82.68
2022-10-07T16:00:59.227Z,82.44
2022-10-07T16:03:27.017Z,83.18
2022-10-07T16:06:00.339Z,83.57
2022-10-07T16:08:27.937Z,84.63
2022-10-07T16:10:55.689Z,84.48
2022-10-07T16:13:23.742Z,84.79
2022-10-07T16:16:02.514Z,85.29
2022-10-07T16:18:30.832Z,85.54
2022-10-07T16:20:58.473Z,85.59
2022-10-07T16:23:26.324Z,85.73
2022-10-07T16:25:53.879Z,86.08
2022-10-07T16:28:39.292Z,86.62
2022-10-07T16:31:08.603Z,86.81
2022-10-07T16:33:36.165Z,86.77
2022-10-07T16:36:11.483Z,87.43
2022-10-07T16:38:38.997Z,87.36
2022-10-07T16:41:06.870Z,88.01
2022-10-07T16:43:35.912Z,87.95
2022-10-07T16:46:04.296Z,88.81
2022-10-07T16:48:34.026Z,89.64
2022-10-07T16:51:01.565Z,90.03
2022-10-07T16:53:29.137Z,90.72
2022-10-07T16:55:57.013Z,90.95
2022-10-07T16:58:24.638Z,90.09
2022-10-07T17:00:52.215Z,90.58
2022-10-07T17:03:20.845Z,90.24
2022-10-07T17:05:56.062Z,90.36
2022-10-07T17:08:23.754Z,90.37
2022-10-07T17:10:51.407Z,91.21
2022-10-07T17:13:19.214Z,91.57
2022-10-07T17:15:52.408Z,91.90
2022-10-07T17:18:20.670Z,92.66
2022-10-07T17:20:52.663Z,93.04
2022-10-07T17:23:21.035Z,93.55
2022-10-07T17:25:48.597Z,94.03
2022-10-07T17:28:16.430Z,94.48
2022-10-07T17:30:44.997Z,94.70
2022-10-07T17:33:13.316Z,95.08
2022-10-07T17:35:41.066Z,95.37
2022-10-07T17:38:10.839Z,94.97
2022-10-07T17:40:38.905Z,95.50
2022-10-07T17:43:07.570Z,95.81
2022-10-07T17:45:36.302Z,96.19
2022-10-07T17:48:04.248Z,96.77
2022-10-07T17:50:32.624Z,96.54
2022-10-07T17:53:00.772Z,96.87
2022-10-07T17:55:29.693Z,96.38
2022-10-07T17:57:57.257Z,96.80
2022-10-07T18:00:24.834Z,97.21
2022-10-07T18:02:52.405Z,97.92
2022-10-07T18:05:20.650Z,97.94
2022-10-07T18:07:48.994Z,98.08
2022-10-07T18:10:17.015Z,97.84
2022-10-07T18:13:03.307Z,97.83
2022-10-07T18:15:31.038Z,97.71
2022-10-07T18:17:58.670Z,98.21
2022-10-07T18:20:27.995Z,98.50
2022-10-07T18:22:55.863Z,98.28
2022-10-07T18:25:23.763Z,97.90
2022-10-07T18:27:53.363Z,98.63
2022-10-07T18:30:20.977Z,99.03
2022-10-07T18:32:48.597Z,99.43
2022-10-07T18:35:16.248Z,99.70
2022-10-07T18:37:44.350Z,99.81
2022-10-07T18:40:12.142Z,99.93
2022-10-07T18:42:39.735Z,100.00
2022-10-07T18:45:10.101Z,100.00
2022-10-07T18:47:37.807Z,100.00
2022-10-07T18:50:06.306Z,100.00
2022-10-07T18:52:33.895Z,100.00
2022-10-07T18:55:01.449Z,100.00
2022-10-07T18:57:29.067Z,100.00
2022-10-07T18:59:56.661Z,100.00
2022-10-07T19:02:25.701Z,100.00
2022-10-07T19:04:53.390Z,100.00
2022-10-07T19:07:21.017Z,100.00
2022-10-07T19:09:48.592Z,100.00
2022-10-07T19:12:33.687Z,100.00
2022-10-07T19:15:01.330Z,100.00
2022-10-07T19:17:30.264Z,100.00
2022-10-07T19:20:00.398Z,100.00
2022-10-07T19:22:27.958Z,100.00
2022-10-07T19:25:12.965Z,100.00
2022-10-07T19:27:40.568Z,100.00
2022-10-07T19:30:09.836Z,100.00
2022-10-07T19:32:38.824Z,100.00
2022-10-07T19:35:07.203Z,100.00
2022-10-07T19:37:35.015Z,100.00
2022-10-07T19:40:02.583Z,100.00
2022-10-07T19:42:30.953Z,100.00
2022-10-07T19:44:58.492Z,100.00
2022-10-07T19:47:26.106Z,100.00
2022-10-07T19:49:55.168Z,100.00
2022-10-07T19:52:23.820Z,100.00
2022-10-07T19:54:51.444Z,100.00
2022-10-07T19:57:19.089Z,100.00
2022-10-07T19:59:46.752Z,100.00
2022-10-07T20:02:14.433Z,100.00
2022-10-07T20:04:42.758Z,100.00
2022-10-07T20:07:12.223Z,100.00
2022-10-07T20:09:39.922Z,100.00
2022-10-07T20:12:07.489Z,100.00
2022-10-07T20:14:35.287Z,100.00
2022-10-07T20:17:03.224Z,100.00
2022-10-07T20:19:30.866Z,100.00
2022-10-07T20:22:01.037Z,100.00
2022-10-07T20:24:30.070Z,100.00
2022-10-07T20:26:57.619Z,100.00
2022-10-07T20:29:25.445Z,100.00
2022-10-07T20:31:53.360Z,100.00
2022-10-07T20:34:21.122Z,100.00
2022-10-07T20:36:50.315Z,100.00
2022-10-07T20:39:36.956Z,100.00
2022-10-07T20:42:27.212Z,100.00
2022-10-07T20:44:54.824Z,100.00
2022-10-07T20:47:23.052Z,100.00
2022-10-07T20:49:51.638Z,100.00
2022-10-07T20:52:20.920Z,100.00
2022-10-07T20:54:49.112Z,100.00
2022-10-07T20:57:19.386Z,100.00
2022-10-07T20:59:47.155Z,100.00
2022-10-07T21:02:16.066Z,100.00
2022-10-07T21:04:44.287Z,100.00
2022-10-07T21:07:11.824Z,100.00
2022-10-07T21:09:39.928Z,100.00
2022-10-07T21:12:09.188Z,100.00
2022-10-07T21:14:38.475Z,100.00
2022-10-07T21:17:07.225Z,100.00
2022-10-07T21:19:35.726Z,100.00
2022-10-07T21:22:06.274Z,100.00
2022-10-07T21:24:35.105Z,100.00
2022-10-07T21:27:03.645Z,100.00
2022-10-07T21:29:32.078Z,100.00
2022-10-07T21:32:01.238Z,100.00
2022-10-07T21:34:29.736Z,100.00
2022-10-07T21:36:57.658Z,100.00
2022-10-07T21:39:26.370Z,100.00
2022-10-07T21:41:54.573Z,100.00
2022-10-07T21:44:22.198Z,100.00
2022-10-07T21:46:49.784Z,100.00
2022-10-07T21:49:18.860Z,100.00
2022-10-07T21:51:47.103Z,100.00
2022-10-07T21:54:15.469Z,100.00
2022-10-07T21:56:45.929Z,100.00
2022-10-07T21:59:13.846Z,100.00
2022-10-07T22:01:42.424Z,100.00
2022-10-07T22:04:16.978Z,100.00
2022-10-07T22:07:03.700Z,100.00
2022-10-07T22:09:31.350Z,100.00
2022-10-07T22:11:59.117Z,100.00
2022-10-07T22:14:27.529Z,100.00
2022-10-07T22:16:55.105Z,100.00
2022-10-07T22:19:22.888Z,100.00
2022-10-07T22:21:52.130Z,100.00
2022-10-07T22:24:19.715Z,100.00
2022-10-07T22:26:50.967Z,100.00
2022-10-07T22:29:19.511Z,100.00
2022-10-07T22:31:47.046Z,100.00
2022-10-07T22:34:28.852Z,100.00
2022-10-07T22:36:58.795Z,100.00
2022-10-07T22:39:26.437Z,100.00
2022-10-07T22:41:54.087Z,100.00
2022-10-07T22:44:21.696Z,100.00
2022-10-07T22:46:49.415Z,100.00
2022-10-07T22:49:16.994Z,100.00
2022-10-07T22:51:44.565Z,100.00
2022-10-07T22:54:14.781Z,100.00
2022-10-07T22:56:42.295Z,100.00
2022-10-07T22:59:10.910Z,100.00
2022-10-07T23:01:38.617Z,100.00
2022-10-07T23:04:06.377Z,100.00
2022-10-07T23:06:35.250Z,100.00
2022-10-07T23:09:04.056Z,100.00
2022-10-07T23:11:32.985Z,100.00
2022-10-07T23:14:00.566Z,100.00
2022-10-07T23:16:31.168Z,100.00
2022-10-07T23:18:59.547Z,100.00
2022-10-07T23:21:28.829Z,100.00
2022-10-07T23:24:05.894Z,100.00
2022-10-07T23:26:36.884Z,100.00
2022-10-07T23:29:05.289Z,100.00
2022-10-07T23:31:33.581Z,100.00
2022-10-07T23:34:02.858Z,100.00
2022-10-07T23:36:30.910Z,100.00
2022-10-07T23:38:59.636Z,100.00
2022-10-07T23:41:28.688Z,100.00
2022-10-07T23:43:59.658Z,100.00
2022-10-07T23:46:28.503Z,100.00
2022-10-07T23:48:56.853Z,100.00
2022-10-07T23:51:27.067Z,100.00
2022-10-07T23:53:56.803Z,100.00
2022-10-07T23:56:24.403Z,100.00
2022-10-07T23:58:52.530Z,100.00
